Flight Track Log - Related Links

Times and Time Zones

All times are in EDT time to prevent confusion due to time zone crossing. See the N1944E flight status page for this flight to view local times or setup timezone preferences in your user account.

Time Position Orientation Groundspeed Altitude Reporting Facility
EDT Latitude Longitude Course Direction KTS MPH feet Rate Location/Type
Fri 08:16:11 AM 45.8833 -108.4425 56° Northeast 146 168 7,100  Level Salt Lake Center
Fri 08:17:12 AM 45.9072 -108.3972 53° Northeast 145 167 8,100 942 Climbing Salt Lake Center
Fri 08:18:12 AM 45.9317 -108.3503 53° Northeast 148 170 9,000 950 Climbing Salt Lake Center
Fri 08:19:00 AM 45.9657 -108.2058 54° Northeast  Level Estimated
Fri 08:19:12 AM 45.9600 -108.2953 53° Northeast 158 182 10,000  Level Salt Lake Center
Fri 08:20:00 AM 45.9919 -108.1495 54° Northeast  Level Estimated
Fri 08:20:13 AM 45.9836 -108.2411 58° Northeast 161 185 10,800  Level Salt Lake Center
Fri 08:21:13 AM 46.0058 -108.1867 60° Northeast 160 184 11,700 750 Climbing Salt Lake Center
Fri 08:22:13 AM 46.0286 -108.1331 59° Northeast 159 183 12,300 645 Climbing Salt Lake Center
Fri 08:23:14 AM 46.0536 -108.0775 57° Northeast 166 191 13,000 793 Climbing Salt Lake Center
Fri 08:24:14 AM 46.0781 -108.0283 54° Northeast 155 178 13,900 850 Climbing Salt Lake Center
Fri 08:25:14 AM 46.1022 -107.9750 57° Northeast 149 171 14,700 595 Climbing Salt Lake Center
Fri 08:26:15 AM 46.1253 -107.9244 57° Northeast 153 176 15,100 198 Climbing Salt Lake Center
Fri 08:27:15 AM 46.1508 -107.8667 57° Northeast 170 196 15,100  Level Salt Lake Center
Fri 08:28:15 AM 46.1781 -107.8075 56° Northeast 176 203 15,100  Level Salt Lake Center
Fri 08:29:16 AM 46.2039 -107.7497 57° Northeast 175 201 15,100  Level Salt Lake Center
Fri 08:30:16 AM 46.2325 -107.6844 58° Northeast 179 206 15,100  Level Salt Lake Center
Fri 08:31:17 AM 46.2586 -107.6264 57° Northeast 174 200 15,100  Level Salt Lake Center
Fri 08:32:17 AM 46.2842 -107.5681 58° Northeast 173 199 15,100  Level Salt Lake Center
Fri 08:33:17 AM 46.3094 -107.5108 57° Northeast 171 197 15,100  Level Salt Lake Center
Fri 08:34:18 AM 46.3347 -107.4542 57° Northeast 168 193 15,100  Level Salt Lake Center
Fri 08:35:18 AM 46.3603 -107.3975 57° Northeast 169 194 15,100  Level Salt Lake Center
Fri 08:36:19 AM 46.3867 -107.3389 57° Northeast 172 198 15,100  Level Salt Lake Center
Fri 08:37:19 AM 46.4128 -107.2794 57° Northeast 174 200 15,100  Level Salt Lake Center
Fri 08:38:19 AM 46.4375 -107.2211 58° Northeast 173 199 15,100  Level Salt Lake Center
Fri 08:39:20 AM 46.4631 -107.1625 58° Northeast 173 199 15,100 -50 Level Salt Lake Center
Fri 08:40:20 AM 46.4883 -107.1042 58° Northeast 172 198 15,000 -50 Descending Salt Lake Center
Fri 08:41:21 AM 46.5136 -107.0464 58° Northeast 171 197 15,000  Level Salt Lake Center
Fri 08:42:21 AM 46.5403 -106.9928 54° Northeast 169 194 15,000  Level Salt Lake Center
Fri 08:43:22 AM 46.5667 -106.9333 57° Northeast 173 199 15,000  Level Salt Lake Center
Fri 08:44:22 AM 46.5925 -106.8731 58° Northeast 175 201 15,000  Level Salt Lake Center
Fri 08:45:23 AM 46.6183 -106.8139 58° Northeast 175 201 15,000  Level Salt Lake Center
Fri 08:46:23 AM 46.6439 -106.7547 58° Northeast 173 199 15,000  Level Salt Lake Center
Fri 08:47:24 AM 46.6692 -106.6931 59° Northeast 173 199 15,000  Level Salt Lake Center
Fri 08:48:24 AM 46.6956 -106.6339 57° Northeast 175 201 15,000  Level Salt Lake Center
Fri 08:49:25 AM 46.7219 -106.5742 57° Northeast 176 203 15,000  Level Salt Lake Center
Fri 08:50:25 AM 46.7475 -106.5131 59° Northeast 176 203 15,000  Level Salt Lake Center
Fri 08:51:26 AM 46.7731 -106.4533 58° Northeast 175 201 15,000  Level Salt Lake Center
Fri 08:52:26 AM 46.7978 -106.3928 59° Northeast 175 201 15,000  Level Salt Lake Center
Fri 08:53:27 AM 46.8217 -106.3308 61° Northeast 175 201 15,000  Level Salt Lake Center
Fri 08:54:27 AM 46.8458 -106.2700 60° Northeast 175 201 15,000  Level Salt Lake Center
Fri 08:55:28 AM 46.8728 -106.2114 56° Northeast 174 200 15,000  Level Salt Lake Center
Fri 08:56:29 AM 46.8992 -106.1517 57° Northeast 174 200 15,000  Level Salt Lake Center
Fri 08:57:29 AM 46.9256 -106.0911 57° Northeast 175 201 15,000  Level Salt Lake Center
Fri 08:58:30 AM 46.9561 -106.0181 58° Northeast 176 203 15,000  Level Salt Lake Center
Fri 08:59:30 AM 46.9811 -105.9581 59° Northeast 175 201 15,000  Level Salt Lake Center
Fri 09:00:31 AM 47.0075 -105.8975 57° Northeast 176 203 15,000  Level Salt Lake Center
Fri 09:01:32 AM 47.0331 -105.8358 59° Northeast 176 203 15,000  Level Salt Lake Center
Fri 09:02:32 AM 47.0578 -105.7750 59° Northeast 176 203 15,000  Level Salt Lake Center
Fri 09:03:33 AM 47.0836 -105.7150 58° Northeast 175 201 15,000  Level Salt Lake Center
Fri 09:04:34 AM 47.1097 -105.6556 57° Northeast 174 200 15,000  Level Salt Lake Center
Fri 09:05:34 AM 47.1356 -105.5950 58° Northeast 175 201 15,000  Level Salt Lake Center
Fri 09:06:35 AM 47.1611 -105.5331 59° Northeast 176 203 15,000  Level Salt Lake Center
Fri 09:07:36 AM 47.1853 -105.4733 59° Northeast 174 200 15,000 -148 Level Salt Lake Center
Fri 09:08:37 AM 47.2097 -105.4139 59° Northeast 172 198 14,700 -298 Descending Salt Lake Center
Fri 09:09:37 AM 47.2347 -105.3506 60° Northeast 174 200 14,400 -397 Descending Salt Lake Center
Fri 09:10:38 AM 47.2614 -105.2897 57° Northeast 176 203 13,900 -443 Descending Salt Lake Center
Fri 09:11:39 AM 47.2881 -105.2267 58° Northeast 179 206 13,500 -590 Descending Salt Lake Center
Fri 09:12:40 AM 47.3136 -105.1603 60° Northeast 182 209 12,700 -694 Descending Salt Lake Center
Fri 09:13:40 AM 47.3392 -105.0958 60° Northeast 183 211 12,100 -645 Descending Salt Lake Center
Fri 09:14:41 AM 47.3656 -105.0322 58° Northeast 183 211 11,400 -836 Descending Salt Lake Center
Fri 09:15:42 AM 47.3931 -104.9683 58° Northeast 183 211 10,400 -885 Descending Salt Lake Center
Fri 09:16:43 AM 47.4258 -104.8886 59° Northeast 187 215 9,600 -645 Descending Salt Lake Center
Fri 09:17:43 AM 47.4492 -104.8186 64° Northeast 189 217 9,100 -545 Descending Salt Lake Center
Fri 09:18:44 AM 47.4739 -104.7547 60° Northeast 186 214 8,500 -787 Descending Salt Lake Center
Fri 09:19:45 AM 47.5044 -104.6928 54° Northeast 184 212 7,500 -836 Descending Salt Lake Center
Fri 09:20:46 AM 47.5353 -104.6269 55° Northeast 189 217 6,800 -689 Descending Salt Lake Center

Login

Don't have an account? Register now (free) for customized features, flight alerts, and more!